Time;durP1;ratioP1;P1;durP2;ratioP2;P2;SDS_P1;SDS_P2;PMS_P1;PMS_P2;Temp;Humidity;BMP_temperature;BMP_pressure;BME280_temperature;BME280_humidity;BME280_pressure;Samples;Min_cycle;Max_cycle;Signal;HPM_P1;HPM_P2
2023/08/31 00:01:33;;;;;;;;;;;;;;;;;;7367256;19;849;-63
2023/08/31 00:04:03;;;;;;;;;;;;;;;;;;7369431;19;1725;-62
2023/08/31 00:06:32;;;;;;;;;;;;;;;;;;7368780;19;1681;-64
2023/08/31 00:09:00;;;;;;;;;;;;;;;;;;7364543;19;853;-64
2023/08/31 00:11:28;;;;;;;;;;;;;;;;;;7366782;19;773;-63
2023/08/31 00:13:56;;;;;;;;;;;;;;;;;;7368654;19;2005;-64
2023/08/31 00:16:24;;;;;;;;;;;;;;;;;;7368344;19;1305;-64
2023/08/31 00:18:52;;;;;;;;;;;;;;;;;;7363111;19;1853;-64
2023/08/31 00:21:21;;;;;;;;;;;;;;;;;;7367107;19;703;-64
2023/08/31 00:23:49;;;;;;;;;;;;;;;;;;7368373;19;1790;-63
2023/08/31 00:26:17;;;;;;;;;;;;;;;;;;7368300;19;1702;-64
2023/08/31 00:28:48;;;;;;;;;;;;;;;;;;7366068;19;881;-63
2023/08/31 00:31:16;;;;;;;;;;;;;;;;;;7368149;19;2019;-64
2023/08/31 00:33:45;;;;;;;;;;;;;;;;;;7368317;19;1838;-65
2023/08/31 00:36:14;;;;;;;;;;;;;;;;;;7367823;19;1673;-64
2023/08/31 00:38:42;;;;;;;;;;;;;;;;;;7363460;19;1853;-66
2023/08/31 00:41:10;;;;;;;;;;;;;;;;;;7370508;19;1791;-65
2023/08/31 00:43:38;;;;;;;;;;;;;;;;;;7364983;19;2041;-64
2023/08/31 00:46:06;;;;;;;;;;;;;;;;;;7365257;19;1725;-64
2023/08/31 00:48:34;;;;;;;;;;;;;;;;;;7367908;19;1198;-63
2023/08/31 00:51:03;;;;;;;;;;;;;;;;;;7364637;19;1778;-62
2023/08/31 00:53:31;;;;;;;;;;;;;;;;;;7365922;19;1997;-65
2023/08/31 00:56:02;;;;;;;;;;;;;;;;;;7364782;19;1798;-65
2023/08/31 00:58:30;;;;;;;;;;;;;;;;;;7367144;19;1876;-64
2023/08/31 01:00:56;;;;;;;;;;;;;;;;;;7364235;19;830;-65
2023/08/31 01:03:24;;;;;;;;;;;;;;;;;;7365151;19;853;-65
2023/08/31 01:05:52;;;;;;;;;;;;;;;;;;7362473;19;1278;-65
2023/08/31 01:08:22;;;;;;;;;;;;;;;;;;7365561;19;1940;-62
2023/08/31 01:10:51;;;;;;;;;;;;;;;;;;7368086;19;1767;-63
2023/08/31 01:13:19;;;;;;;;;;;;;;;;;;7365371;19;812;-64
2023/08/31 01:15:47;;;;;;;;;;;;;;;;;;7362974;19;1298;-64
2023/08/31 01:18:15;;;;;;;;;;;;;;;;;;7364641;19;1996;-64
2023/08/31 01:20:44;;;;;;;;;;;;;;;;;;7368956;19;1465;-64
2023/08/31 01:23:12;;;;;;;;;;;;;;;;;;7365902;19;854;-64
2023/08/31 01:25:42;;;;;;;;;;;;;;;;;;7365135;19;1647;-64
2023/08/31 01:28:10;;;;;;;;;;;;;;;;;;7368222;19;1672;-64
2023/08/31 01:30:39;;;;;;;;;;;;;;;;;;7370511;19;1220;-65
2023/08/31 01:33:07;;;;;;;;;;;;;;;;;;7365716;19;1892;-65
2023/08/31 01:35:37;;;;;;;;;;;;;;;;;;7366939;19;1732;-63
2023/08/31 01:38:08;;;;;;;;;;;;;;;;;;7365897;19;1838;-64
2023/08/31 01:40:36;;;;;;;;;;;;;;;;;;7365952;19;1725;-64
2023/08/31 01:43:05;;;;;;;;;;;;;;;;;;7365497;19;1575;-64
2023/08/31 01:45:37;;;;;;;;;;;;;;;;;;7366827;19;1771;-65
2023/08/31 01:48:05;;;;;;;;;;;;;;;;;;7365812;19;1302;-64
2023/08/31 01:50:33;;;;;;;;;;;;;;;;;;7366208;19;2104;-65
2023/08/31 01:53:02;;;;;;;;;;;;;;;;;;7364884;19;1795;-65
2023/08/31 01:55:30;;;;;;;;;;;;;;;;;;7366236;19;1739;-64
2023/08/31 01:57:58;;;;;;;;;;;;;;;;;;7361758;19;1861;-66
2023/08/31 02:00:28;;;;;;;;;;;;;;;;;;7359874;19;2115;-64
2023/08/31 02:02:58;;;;;;;;;;;;;;;;;;7364547;19;1236;-64
2023/08/31 02:05:26;;;;;;;;;;;;;;;;;;7363384;19;2092;-62
2023/08/31 02:07:54;;;;;;;;;;;;;;;;;;7368245;19;2099;-62
2023/08/31 02:10:24;;;;;;;;;;;;;;;;;;7372192;19;1272;-64
2023/08/31 02:12:52;;;;;;;;;;;;;;;;;;7370678;19;2109;-63
2023/08/31 02:15:20;;;;;;;;;;;;;;;;;;7371694;19;1854;-64
2023/08/31 02:17:48;;;;;;;;;;;;;;;;;;7374140;19;1842;-66
2023/08/31 02:20:17;;;;;;;;;;;;;;;;;;7369640;19;2093;-63
2023/08/31 02:22:45;;;;;;;;;;;;;;;;;;7372863;19;1480;-64
2023/08/31 02:25:13;;;;;;;;;;;;;;;;;;7367728;19;1618;-64
2023/08/31 02:27:41;;;;;;;;;;;;;;;;;;7370820;19;1779;-64
2023/08/31 02:30:11;;;;;;;;;;;;;;;;;;7371507;19;1222;-64
2023/08/31 02:32:39;;;;;;;;;;;;;;;;;;7369968;19;862;-65
2023/08/31 02:35:07;;;;;;;;;;;;;;;;;;7372588;19;1586;-65
2023/08/31 02:37:36;;;;;;;;;;;;;;;;;;7372359;19;1767;-64
2023/08/31 02:40:05;;;;;;;;;;;;;;;;;;7367483;19;2026;-64
2023/08/31 02:42:33;;;;;;;;;;;;;;;;;;7372374;19;1240;-65
2023/08/31 02:45:01;;;;;;;;;;;;;;;;;;7367446;19;1374;-65
2023/08/31 02:47:30;;;;;;;;;;;;;;;;;;7369427;19;1966;-65
2023/08/31 02:49:59;;;;;;;;;;;;;;;;;;7369972;19;1610;-65
2023/08/31 02:52:27;;;;;;;;;;;;;;;;;;7371115;19;1236;-65
2023/08/31 02:54:55;;;;;;;;;;;;;;;;;;7369856;19;1853;-64
2023/08/31 02:57:24;;;;;;;;;;;;;;;;;;7372368;19;1203;-65
2023/08/31 02:59:52;;;;;;;;;;;;;;;;;;7365088;19;1869;-65
2023/08/31 03:02:20;;;;;;;;;;;;;;;;;;7368351;19;2178;-64
2023/08/31 03:04:49;;;;;;;;;;;;;;;;;;7371807;19;1088;-63
2023/08/31 03:07:17;;;;;;;;;;;;;;;;;;7365724;19;1329;-64
2023/08/31 03:09:46;;;;;;;;;;;;;;;;;;7367220;19;792;-64
2023/08/31 03:12:14;;;;;;;;;;;;;;;;;;7371700;19;1762;-65
2023/08/31 03:14:42;;;;;;;;;;;;;;;;;;7370443;19;1563;-65
2023/08/31 03:17:10;;;;;;;;;;;;;;;;;;7367786;19;2104;-65
2023/08/31 03:19:38;;;;;;;;;;;;;;;;;;7366552;19;1900;-63
2023/08/31 03:22:07;;;;;;;;;;;;;;;;;;7370119;19;1678;-63
2023/08/31 03:24:35;;;;;;;;;;;;;;;;;;7372296;19;1501;-63
2023/08/31 03:27:03;;;;;;;;;;;;;;;;;;7366829;19;2135;-64
2023/08/31 03:29:32;;;;;;;;;;;;;;;;;;7370571;19;1217;-64
2023/08/31 03:32:00;;;;;;;;;;;;;;;;;;7367350;19;801;-65
2023/08/31 03:34:28;;;;;;;;;;;;;;;;;;7367078;19;786;-65
2023/08/31 03:36:56;;;;;;;;;;;;;;;;;;7363628;19;1816;-65
2023/08/31 03:39:24;;;;;;;;;;;;;;;;;;7363855;19;1915;-65
2023/08/31 03:41:52;;;;;;;;;;;;;;;;;;7368647;19;1896;-65
2023/08/31 03:44:21;;;;;;;;;;;;;;;;;;7369746;19;1304;-65
2023/08/31 03:46:51;;;;;;;;;;;;;;;;;;7363767;19;1321;-65
2023/08/31 03:49:19;;;;;;;;;;;;;;;;;;7365435;19;1697;-64
2023/08/31 03:51:47;;;;;;;;;;;;;;;;;;7368549;19;1499;-65
2023/08/31 03:54:15;;;;;;;;;;;;;;;;;;7366678;19;885;-64
2023/08/31 03:56:44;;;;;;;;;;;;;;;;;;7365157;19;2015;-64
2023/08/31 03:59:14;;;;;;;;;;;;;;;;;;7364949;19;1956;-63
2023/08/31 04:01:42;;;;;;;;;;;;;;;;;;7370270;19;1483;-64
2023/08/31 04:04:12;;;;;;;;;;;;;;;;;;7366155;19;1667;-64
2023/08/31 04:06:41;;;;;;;;;;;;;;;;;;7366858;19;1627;-65
2023/08/31 04:09:09;;;;;;;;;;;;;;;;;;7368379;19;1748;-65
2023/08/31 04:11:37;;;;;;;;;;;;;;;;;;7367899;19;1675;-64
2023/08/31 04:14:05;;;;;;;;;;;;;;;;;;7366423;19;1798;-65
2023/08/31 04:16:33;;;;;;;;;;;;;;;;;;7368068;19;1710;-65
2023/08/31 04:19:02;;;;;;;;;;;;;;;;;;7367974;19;1873;-65
2023/08/31 04:21:30;;;;;;;;;;;;;;;;;;7368257;19;2037;-64
2023/08/31 04:23:59;;;;;;;;;;;;;;;;;;7370311;19;1465;-65
2023/08/31 04:26:27;;;;;;;;;;;;;;;;;;7364568;19;1979;-66
2023/08/31 04:28:56;;;;;;;;;;;;;;;;;;7368851;19;1672;-65
2023/08/31 04:31:24;;;;;;;;;;;;;;;;;;7364070;19;865;-65
2023/08/31 04:33:53;;;;;;;;;;;;;;;;;;7366053;19;881;-64
2023/08/31 04:36:21;;;;;;;;;;;;;;;;;;7364541;19;1302;-65
2023/08/31 04:38:50;;;;;;;;;;;;;;;;;;7366948;19;1845;-66
2023/08/31 04:41:18;;;;;;;;;;;;;;;;;;7369449;19;1342;-66
2023/08/31 04:43:47;;;;;;;;;;;;;;;;;;7366387;19;854;-65
2023/08/31 04:46:15;;;;;;;;;;;;;;;;;;7364745;19;2085;-65
2023/08/31 04:48:43;;;;;;;;;;;;;;;;;;7369161;19;1537;-65
2023/08/31 04:51:12;;;;;;;;;;;;;;;;;;7367908;19;1835;-64
2023/08/31 04:53:40;;;;;;;;;;;;;;;;;;7369883;19;1801;-64
2023/08/31 04:56:08;;;;;;;;;;;;;;;;;;7363682;19;2001;-65
2023/08/31 04:58:36;;;;;;;;;;;;;;;;;;7368020;19;1845;-65
2023/08/31 05:01:04;;;;;;;;;;;;;;;;;;7367680;19;1704;-64
2023/08/31 05:03:32;;;;;;;;;;;;;;;;;;7369308;19;1504;-66
2023/08/31 05:06:00;;;;;;;;;;;;;;;;;;7367158;19;2018;-66
2023/08/31 05:08:29;;;;;;;;;;;;;;;;;;7370585;19;1350;-67
2023/08/31 05:10:57;;;;;;;;;;;;;;;;;;7366275;19;839;-67
2023/08/31 05:13:25;;;;;;;;;;;;;;;;;;7368835;19;1973;-65
2023/08/31 05:15:53;;;;;;;;;;;;;;;;;;7369371;19;1862;-67
2023/08/31 05:18:21;;;;;;;;;;;;;;;;;;7366560;19;854;-67
2023/08/31 05:20:50;;;;;;;;;;;;;;;;;;7368214;19;1862;-67
2023/08/31 05:23:18;;;;;;;;;;;;;;;;;;7371853;19;1782;-71
2023/08/31 05:25:46;;;;;;;;;;;;;;;;;;7372226;19;1382;-65
2023/08/31 05:28:14;;;;;;;;;;;;;;;;;;7366061;19;825;-66
2023/08/31 05:30:42;;;;;;;;;;;;;;;;;;7365237;19;865;-66
2023/08/31 05:33:10;;;;;;;;;;;;;;;;;;7367592;19;825;-64
2023/08/31 05:35:38;;;;;;;;;;;;;;;;;;7368047;19;2004;-64
2023/08/31 05:38:07;;;;;;;;;;;;;;;;;;7367753;19;1646;-65
2023/08/31 05:40:35;;;;;;;;;;;;;;;;;;7366491;19;1859;-67
2023/08/31 05:43:03;;;;;;;;;;;;;;;;;;7367643;19;1790;-65
2023/08/31 05:45:31;;;;;;;;;;;;;;;;;;7375164;19;1459;-67
2023/08/31 05:48:00;;;;;;;;;;;;;;;;;;7373144;19;1571;-64
2023/08/31 05:50:28;;;;;;;;;;;;;;;;;;7373449;19;1620;-68
2023/08/31 05:52:56;;;;;;;;;;;;;;;;;;7373958;19;1643;-67
2023/08/31 05:55:22;;;;;;;;;;;;;;;;;;7370904;19;1723;-68
2023/08/31 05:57:50;;;;;;;;;;;;;;;;;;7375793;19;1948;-68
2023/08/31 06:00:18;;;;;;;;;;;;;;;;;;7373428;19;1857;-68
2023/08/31 06:02:47;;;;;;;;;;;;;;;;;;7374431;19;1660;-68
2023/08/31 06:05:16;;;;;;;;;;;;;;;;;;7376322;19;1848;-66
2023/08/31 06:07:44;;;;;;;;;;;;;;;;;;7375576;19;1726;-67
2023/08/31 06:10:14;;;;;;;;;;;;;;;;;;7374340;19;1336;-67
2023/08/31 06:12:43;;;;;;;;;;;;;;;;;;7372510;19;1675;-67
2023/08/31 06:15:11;;;;;;;;;;;;;;;;;;7371969;19;1713;-68
2023/08/31 06:17:39;;;;;;;;;;;;;;;;;;7374616;19;1693;-68
2023/08/31 06:20:08;;;;;;;;;;;;;;;;;;7370295;19;1872;-65
2023/08/31 06:22:36;;;;;;;;;;;;;;;;;;7373721;19;1704;-68
2023/08/31 06:25:05;;;;;;;;;;;;;;;;;;7372480;19;2096;-66
2023/08/31 06:27:33;;;;;;;;;;;;;;;;;;7375404;19;1669;-68
2023/08/31 06:30:01;;;;;;;;;;;;;;;;;;7369355;19;1951;-67
2023/08/31 06:32:30;;;;;;;;;;;;;;;;;;7374434;19;1757;-69
2023/08/31 06:34:58;;;;;;;;;;;;;;;;;;7373705;19;1966;-64
2023/08/31 06:37:26;;;;;;;;;;;;;;;;;;7371032;19;1710;-66
2023/08/31 06:39:54;;;;;;;;;;;;;;;;;;7367123;19;1841;-65
2023/08/31 06:42:22;;;;;;;;;;;;;;;;;;7370327;19;820;-67
2023/08/31 06:44:51;;;;;;;;;;;;;;;;;;7369551;19;847;-67
2023/08/31 06:47:20;;;;;;;;;;;;;;;;;;7367917;19;1266;-68
2023/08/31 06:49:48;;;;;;;;;;;;;;;;;;7369732;19;852;-68
2023/08/31 06:52:16;;;;;;;;;;;;;;;;;;7370237;19;789;-67
2023/08/31 06:54:45;;;;;;;;;;;;;;;;;;7368715;19;815;-67
2023/08/31 06:57:13;;;;;;;;;;;;;;;;;;7365727;19;1801;-67
2023/08/31 06:59:41;;;;;;;;;;;;;;;;;;7370206;19;1853;-68
2023/08/31 07:02:09;;;;;;;;;;;;;;;;;;7369562;19;2082;-66
2023/08/31 07:04:37;;;;;;;;;;;;;;;;;;7373957;19;1664;-66
2023/08/31 07:07:05;;;;;;;;;;;;;;;;;;7369836;19;1930;-65
2023/08/31 07:09:34;;;;;;;;;;;;;;;;;;7372988;19;1677;-67
2023/08/31 07:12:02;;;;;;;;;;;;;;;;;;7369580;19;789;-67
2023/08/31 07:14:30;;;;;;;;;;;;;;;;;;7371983;19;1633;-67
2023/08/31 07:16:58;;;;;;;;;;;;;;;;;;7370805;19;1472;-67
2023/08/31 07:19:26;;;;;;;;;;;;;;;;;;7367917;19;1834;-67
2023/08/31 07:21:54;;;;;;;;;;;;;;;;;;7372623;19;2056;-67
2023/08/31 07:24:23;;;;;;;;;;;;;;;;;;7370693;19;1678;-67
2023/08/31 07:26:51;;;;;;;;;;;;;;;;;;7371885;19;1460;-67
2023/08/31 07:29:19;;;;;;;;;;;;;;;;;;7372351;19;1465;-68
2023/08/31 07:31:47;;;;;;;;;;;;;;;;;;7367686;19;1757;-67
2023/08/31 07:34:15;;;;;;;;;;;;;;;;;;7371700;19;1373;-66
2023/08/31 07:36:43;;;;;;;;;;;;;;;;;;7366633;19;1301;-67
2023/08/31 07:39:12;;;;;;;;;;;;;;;;;;7368652;19;1776;-68
2023/08/31 07:41:40;;;;;;;;;;;;;;;;;;7374590;19;2355;-67
2023/08/31 07:44:08;;;;;;;;;;;;;;;;;;7370546;19;879;-66
2023/08/31 07:46:36;;;;;;;;;;;;;;;;;;7367363;19;1655;-67
2023/08/31 07:49:04;;;;;;;;;;;;;;;;;;7373173;19;2046;-66
2023/08/31 07:51:32;;;;;;;;;;;;;;;;;;7370344;19;1816;-66
2023/08/31 07:54:00;;;;;;;;;;;;;;;;;;7369748;19;1760;-67
2023/08/31 07:56:29;;;;;;;;;;;;;;;;;;7367535;19;1820;-67
2023/08/31 07:58:57;;;;;;;;;;;;;;;;;;7367241;19;2084;-66
2023/08/31 08:01:25;;;;;;;;;;;;;;;;;;7370549;19;1845;-67
2023/08/31 08:03:53;;;;;;;;;;;;;;;;;;7372301;19;1732;-67
2023/08/31 08:06:21;;;;;;;;;;;;;;;;;;7366883;19;1597;-68
2023/08/31 08:08:49;;;;;;;;;;;;;;;;;;7367498;19;821;-68
2023/08/31 08:11:18;;;;;;;;;;;;;;;;;;7368577;19;841;-67
2023/08/31 08:13:46;;;;;;;;;;;;;;;;;;7370244;19;839;-68
2023/08/31 08:16:14;;;;;;;;;;;;;;;;;;7366087;19;1255;-69
2023/08/31 08:18:42;;;;;;;;;;;;;;;;;;7368786;19;1946;-68
2023/08/31 08:21:10;;;;;;;;;;;;;;;;;;7366333;19;1866;-68
2023/08/31 08:23:38;;;;;;;;;;;;;;;;;;7366264;19;794;-68
2023/08/31 08:26:06;;;;;;;;;;;;;;;;;;7366166;19;1271;-67
2023/08/31 08:28:35;;;;;;;;;;;;;;;;;;7366978;19;893;-68
2023/08/31 08:31:03;;;;;;;;;;;;;;;;;;7371355;19;1656;-66
2023/08/31 08:33:32;;;;;;;;;;;;;;;;;;7368126;19;783;-67
2023/08/31 08:36:00;;;;;;;;;;;;;;;;;;7367071;19;1274;-67
2023/08/31 08:38:28;;;;;;;;;;;;;;;;;;7368993;19;755;-67
2023/08/31 08:40:56;;;;;;;;;;;;;;;;;;7366260;19;1841;-67
2023/08/31 08:43:24;;;;;;;;;;;;;;;;;;7368218;19;806;-67
2023/08/31 08:45:52;;;;;;;;;;;;;;;;;;7365849;19;1286;-67
2023/08/31 08:48:21;;;;;;;;;;;;;;;;;;7370744;19;803;-67
2023/08/31 08:50:49;;;;;;;;;;;;;;;;;;7368093;19;844;-67
2023/08/31 08:53:17;;;;;;;;;;;;;;;;;;7368052;19;790;-67
2023/08/31 08:55:45;;;;;;;;;;;;;;;;;;7369852;19;1825;-68
2023/08/31 08:58:13;;;;;;;;;;;;;;;;;;7367179;19;1760;-65
2023/08/31 09:00:42;;;;;;;;;;;;;;;;;;7369816;19;1842;-66
2023/08/31 09:03:10;;;;;;;;;;;;;;;;;;7366935;19;881;-66
2023/08/31 09:05:38;;;;;;;;;;;;;;;;;;7366138;19;1266;-67
2023/08/31 09:08:09;;;;;;;;;;;;;;;;;;7365520;19;850;-68
2023/08/31 09:10:37;;;;;;;;;;;;;;;;;;7366216;19;709;-68
2023/08/31 09:13:05;;;;;;;;;;;;;;;;;;7365480;19;1019;-67
2023/08/31 09:15:34;;;;;;;;;;;;;;;;;;7369162;19;1347;-68
2023/08/31 09:18:02;;;;;;;;;;;;;;;;;;7375760;19;853;-66
2023/08/31 09:20:30;;;;;;;;;;;;;;;;;;7377571;19;1862;-65
2023/08/31 09:22:59;;;;;;;;;;;;;;;;;;7382969;19;898;-68
2023/08/31 09:25:27;;;;;;;;;;;;;;;;;;7384257;19;1275;-68
2023/08/31 09:27:55;;;;;;;;;;;;;;;;;;7382993;19;833;-67
2023/08/31 09:30:23;;;;;;;;;;;;;;;;;;7376880;19;741;-68
2023/08/31 09:32:51;;;;;;;;;;;;;;;;;;7374214;19;853;-67
2023/08/31 09:35:19;;;;;;;;;;;;;;;;;;7373884;19;1273;-69
2023/08/31 09:37:48;;;;;;;;;;;;;;;;;;7381339;19;1566;-67
2023/08/31 09:40:16;;;;;;;;;;;;;;;;;;7388295;19;2069;-67
2023/08/31 09:45:43;;;;;;;;;;;;;;;;;;7382518;19;2070;-67
2023/08/31 09:48:11;;;;;;;;;;;;;;;;;;7389073;19;1471;-64
2023/08/31 09:50:39;;;;;;;;;;;;;;;;;;7387418;19;1373;-64
2023/08/31 09:53:07;;;;;;;;;;;;;;;;;;7381283;19;1940;-64
2023/08/31 09:55:35;;;;;;;;;;;;;;;;;;7383926;19;1684;-63
2023/08/31 09:58:04;;;;;;;;;;;;;;;;;;7374537;19;1548;-64
2023/08/31 10:00:32;;;;;;;;;;;;;;;;;;7376278;19;1857;-66
2023/08/31 10:03:00;;;;;;;;;;;;;;;;;;7375443;19;1330;-65
2023/08/31 10:05:28;;;;;;;;;;;;;;;;;;7370707;19;1345;-67
2023/08/31 10:07:56;;;;;;;;;;;;;;;;;;7371573;19;786;-66
2023/08/31 10:10:25;;;;;;;;;;;;;;;;;;7371196;19;1380;-66
2023/08/31 10:12:53;;;;;;;;;;;;;;;;;;7371370;19;803;-67
2023/08/31 10:15:21;;;;;;;;;;;;;;;;;;7371209;19;1341;-67
2023/08/31 10:17:49;;;;;;;;;;;;;;;;;;7370033;19;863;-67
2023/08/31 10:20:17;;;;;;;;;;;;;;;;;;7370449;19;1849;-67
2023/08/31 10:22:45;;;;;;;;;;;;;;;;;;7370063;19;845;-66
2023/08/31 10:25:14;;;;;;;;;;;;;;;;;;7370590;19;1250;-67
2023/08/31 10:27:42;;;;;;;;;;;;;;;;;;7370825;19;806;-65
2023/08/31 10:30:10;;;;;;;;;;;;;;;;;;7368479;19;866;-67
2023/08/31 10:32:38;;;;;;;;;;;;;;;;;;7370755;19;876;-67
2023/08/31 10:35:07;;;;;;;;;;;;;;;;;;7369581;19;1290;-67
2023/08/31 10:37:35;;;;;;;;;;;;;;;;;;7371392;19;857;-68
2023/08/31 10:40:03;;;;;;;;;;;;;;;;;;7371599;19;807;-68
2023/08/31 10:42:31;;;;;;;;;;;;;;;;;;7370123;19;1842;-67
2023/08/31 10:44:59;;;;;;;;;;;;;;;;;;7374185;19;1716;-67
2023/08/31 10:47:27;;;;;;;;;;;;;;;;;;7375070;19;1995;-67
2023/08/31 10:49:59;;;;;;;;;;;;;;;;;;7375209;19;2104;-69
2023/08/31 10:52:27;;;;;;;;;;;;;;;;;;7376618;19;2039;-67
2023/08/31 10:54:55;;;;;;;;;;;;;;;;;;7375970;19;2048;-68
2023/08/31 10:57:23;;;;;;;;;;;;;;;;;;7374674;19;1515;-68
2023/08/31 10:59:50;;;;;;;;;;;;;;;;;;7371650;19;1566;-67
2023/08/31 11:02:18;;;;;;;;;;;;;;;;;;7372947;19;2058;-66
2023/08/31 11:04:46;;;;;;;;;;;;;;;;;;7373731;19;2150;-67
2023/08/31 11:07:14;;;;;;;;;;;;;;;;;;7373585;19;1724;-67
2023/08/31 11:09:42;;;;;;;;;;;;;;;;;;7374258;19;1670;-67
2023/08/31 11:12:10;;;;;;;;;;;;;;;;;;7367159;19;861;-67
2023/08/31 11:14:39;;;;;;;;;;;;;;;;;;7371981;19;1336;-68
2023/08/31 11:17:07;;;;;;;;;;;;;;;;;;7368723;19;1298;-68
2023/08/31 11:19:35;;;;;;;;;;;;;;;;;;7369690;19;825;-65
2023/08/31 11:22:03;;;;;;;;;;;;;;;;;;7368869;19;1851;-65
2023/08/31 11:24:31;;;;;;;;;;;;;;;;;;7372721;19;802;-66
2023/08/31 11:27:03;;;;;;;;;;;;;;;;;;7369635;19;1321;-66
2023/08/31 11:29:31;;;;;;;;;;;;;;;;;;7370963;19;1761;-65
2023/08/31 11:32:00;;;;;;;;;;;;;;;;;;7375418;19;1842;-67
2023/08/31 11:34:28;;;;;;;;;;;;;;;;;;7373983;19;1374;-65
2023/08/31 11:36:56;;;;;;;;;;;;;;;;;;7367085;19;1341;-67
2023/08/31 11:39:24;;;;;;;;;;;;;;;;;;7370240;19;1670;-66
2023/08/31 11:41:52;;;;;;;;;;;;;;;;;;7371625;19;1841;-66
2023/08/31 11:44:20;;;;;;;;;;;;;;;;;;7372479;19;858;-67
2023/08/31 11:46:50;;;;;;;;;;;;;;;;;;7368581;19;1262;-65
2023/08/31 11:49:18;;;;;;;;;;;;;;;;;;7373220;19;2058;-68
2023/08/31 11:51:46;;;;;;;;;;;;;;;;;;7377766;19;1470;-66
2023/08/31 11:54:14;;;;;;;;;;;;;;;;;;7370836;19;824;-66
2023/08/31 11:56:42;;;;;;;;;;;;;;;;;;7367266;19;1355;-65
2023/08/31 11:59:11;;;;;;;;;;;;;;;;;;7370763;19;1783;-65
2023/08/31 12:01:40;;;;;;;;;;;;;;;;;;7371927;19;1865;-65
2023/08/31 12:04:08;;;;;;;;;;;;;;;;;;7367875;19;822;-65
2023/08/31 12:06:36;;;;;;;;;;;;;;;;;;7363997;19;2007;-65
2023/08/31 12:09:05;;;;;;;;;;;;;;;;;;7369066;19;2052;-66
2023/08/31 12:11:33;;;;;;;;;;;;;;;;;;7372076;19;1739;-66
2023/08/31 12:14:03;;;;;;;;;;;;;;;;;;7373032;19;1697;-66
2023/08/31 12:16:31;;;;;;;;;;;;;;;;;;7367785;19;1925;-66
2023/08/31 12:19:00;;;;;;;;;;;;;;;;;;7371346;19;1507;-65
2023/08/31 12:21:28;;;;;;;;;;;;;;;;;;7368742;19;1847;-65
2023/08/31 12:23:56;;;;;;;;;;;;;;;;;;7375591;19;1761;-66
2023/08/31 12:26:24;;;;;;;;;;;;;;;;;;7368732;19;1274;-65
2023/08/31 12:28:52;;;;;;;;;;;;;;;;;;7372730;19;1077;-65
2023/08/31 12:31:20;;;;;;;;;;;;;;;;;;7369560;19;854;-65
2023/08/31 12:33:49;;;;;;;;;;;;;;;;;;7370221;19;1784;-65
2023/08/31 12:36:17;;;;;;;;;;;;;;;;;;7367646;19;1336;-64
2023/08/31 12:38:45;;;;;;;;;;;;;;;;;;7366271;19;874;-63
2023/08/31 12:41:13;;;;;;;;;;;;;;;;;;7368300;19;1846;-63
2023/08/31 12:43:41;;;;;;;;;;;;;;;;;;7367224;19;851;-65
2023/08/31 12:46:09;;;;;;;;;;;;;;;;;;7369837;19;1279;-65
2023/08/31 12:48:37;;;;;;;;;;;;;;;;;;7367260;19;817;-64
2023/08/31 12:51:06;;;;;;;;;;;;;;;;;;7368171;19;806;-64
2023/08/31 12:53:34;;;;;;;;;;;;;;;;;;7363840;19;833;-65
2023/08/31 12:56:03;;;;;;;;;;;;;;;;;;7365695;19;1357;-65
2023/08/31 12:58:31;;;;;;;;;;;;;;;;;;7365928;19;910;-64
2023/08/31 13:00:59;;;;;;;;;;;;;;;;;;7370949;19;1841;-64
2023/08/31 13:03:28;;;;;;;;;;;;;;;;;;7371292;19;880;-64
2023/08/31 13:05:57;;;;;;;;;;;;;;;;;;7364628;19;1287;-65
2023/08/31 13:08:25;;;;;;;;;;;;;;;;;;7365399;19;813;-63
2023/08/31 13:10:53;;;;;;;;;;;;;;;;;;7366546;19;1621;-64
2023/08/31 13:13:21;;;;;;;;;;;;;;;;;;7365439;19;1922;-63
2023/08/31 13:15:50;;;;;;;;;;;;;;;;;;7366118;19;1815;-64
2023/08/31 13:18:18;;;;;;;;;;;;;;;;;;7365620;19;2064;-64
2023/08/31 13:20:46;;;;;;;;;;;;;;;;;;7364197;19;1895;-64
2023/08/31 13:23:14;;;;;;;;;;;;;;;;;;7365795;19;1992;-63
2023/08/31 13:25:42;;;;;;;;;;;;;;;;;;7366496;19;2018;-64
2023/08/31 13:28:10;;;;;;;;;;;;;;;;;;7365349;19;2036;-66
2023/08/31 13:30:38;;;;;;;;;;;;;;;;;;7369164;19;1797;-63
2023/08/31 13:33:06;;;;;;;;;;;;;;;;;;7365111;19;848;-64
2023/08/31 13:35:35;;;;;;;;;;;;;;;;;;7365375;19;2031;-63
2023/08/31 13:38:03;;;;;;;;;;;;;;;;;;7367144;19;1659;-65
2023/08/31 13:40:31;;;;;;;;;;;;;;;;;;7369076;19;1646;-64
2023/08/31 13:43:02;;;;;;;;;;;;;;;;;;7362307;19;1851;-64
2023/08/31 13:45:30;;;;;;;;;;;;;;;;;;7365075;19;2079;-65
2023/08/31 13:47:59;;;;;;;;;;;;;;;;;;7364044;19;1810;-64
2023/08/31 13:50:28;;;;;;;;;;;;;;;;;;7367171;19;1976;-66
2023/08/31 13:52:56;;;;;;;;;;;;;;;;;;7367105;19;1773;-64
2023/08/31 13:55:24;;;;;;;;;;;;;;;;;;7365318;19;1765;-64
2023/08/31 13:57:52;;;;;;;;;;;;;;;;;;7367841;19;1878;-63
2023/08/31 14:00:21;;;;;;;;;;;;;;;;;;7367386;19;1717;-63
2023/08/31 14:02:49;;;;;;;;;;;;;;;;;;7364621;19;2002;-64
2023/08/31 14:05:17;;;;;;;;;;;;;;;;;;7371251;19;1834;-64
2023/08/31 14:07:45;;;;;;;;;;;;;;;;;;7375470;19;1626;-65
2023/08/31 14:10:13;;;;;;;;;;;;;;;;;;7370581;19;1954;-64
2023/08/31 14:12:41;;;;;;;;;;;;;;;;;;7374486;19;1919;-64
2023/08/31 14:15:09;;;;;;;;;;;;;;;;;;7374734;19;1384;-64
2023/08/31 14:17:38;;;;;;;;;;;;;;;;;;7371602;19;797;-64
2023/08/31 14:20:09;;;;;;;;;;;;;;;;;;7369604;19;1688;-61
2023/08/31 14:22:37;;;;;;;;;;;;;;;;;;7372148;19;1921;-59
2023/08/31 14:25:05;;;;;;;;;;;;;;;;;;7369425;19;1804;-62
2023/08/31 14:27:33;;;;;;;;;;;;;;;;;;7374341;19;1720;-63
2023/08/31 14:30:02;;;;;;;;;;;;;;;;;;7373012;19;1644;-63
2023/08/31 14:32:30;;;;;;;;;;;;;;;;;;7371644;19;883;-63
2023/08/31 14:34:58;;;;;;;;;;;;;;;;;;7371306;19;1690;-63
2023/08/31 14:37:26;;;;;;;;;;;;;;;;;;7369344;19;1949;-65
2023/08/31 14:39:54;;;;;;;;;;;;;;;;;;7372620;19;1788;-63
2023/08/31 14:42:22;;;;;;;;;;;;;;;;;;7372265;19;1853;-65
2023/08/31 14:44:51;;;;;;;;;;;;;;;;;;7371890;19;2092;-64
2023/08/31 14:47:19;;;;;;;;;;;;;;;;;;7372045;19;1677;-65
2023/08/31 14:49:47;;;;;;;;;;;;;;;;;;7370801;19;1180;-65
2023/08/31 14:52:16;;;;;;;;;;;;;;;;;;7371977;19;1787;-64
2023/08/31 14:54:45;;;;;;;;;;;;;;;;;;7374576;19;1458;-64
2023/08/31 14:57:13;;;;;;;;;;;;;;;;;;7367678;19;1313;-65
2023/08/31 14:59:41;;;;;;;;;;;;;;;;;;7367667;19;797;-65
2023/08/31 15:02:10;;;;;;;;;;;;;;;;;;7367995;19;1855;-67
2023/08/31 15:04:38;;;;;;;;;;;;;;;;;;7372830;19;1884;-64
2023/08/31 15:07:06;;;;;;;;;;;;;;;;;;7367020;19;1356;-63
2023/08/31 15:09:34;;;;;;;;;;;;;;;;;;7368000;19;852;-65
2023/08/31 15:12:02;;;;;;;;;;;;;;;;;;7370673;19;1940;-65
2023/08/31 15:14:30;;;;;;;;;;;;;;;;;;7372505;19;1855;-65
2023/08/31 15:16:58;;;;;;;;;;;;;;;;;;7366142;19;1239;-64
2023/08/31 15:19:27;;;;;;;;;;;;;;;;;;7367124;19;769;-64
2023/08/31 15:21:55;;;;;;;;;;;;;;;;;;7369174;19;1849;-65
2023/08/31 15:24:23;;;;;;;;;;;;;;;;;;7370060;19;2124;-65
2023/08/31 15:26:51;;;;;;;;;;;;;;;;;;7366606;19;1272;-64
2023/08/31 15:29:19;;;;;;;;;;;;;;;;;;7368599;19;2212;-62
2023/08/31 15:31:48;;;;;;;;;;;;;;;;;;7370955;19;1642;-63
2023/08/31 15:34:16;;;;;;;;;;;;;;;;;;7372702;19;1514;-64
2023/08/31 15:36:44;;;;;;;;;;;;;;;;;;7367568;19;1361;-63
2023/08/31 15:39:12;;;;;;;;;;;;;;;;;;7370270;19;1919;-65
2023/08/31 15:41:40;;;;;;;;;;;;;;;;;;7370613;19;1837;-63
2023/08/31 15:44:09;;;;;;;;;;;;;;;;;;7370313;19;1896;-65
2023/08/31 15:46:37;;;;;;;;;;;;;;;;;;7367673;19;1649;-65
2023/08/31 15:49:05;;;;;;;;;;;;;;;;;;7370198;19;1446;-65
2023/08/31 15:51:33;;;;;;;;;;;;;;;;;;7369710;19;1680;-65
2023/08/31 15:54:03;;;;;;;;;;;;;;;;;;7369803;19;1626;-65
2023/08/31 15:56:32;;;;;;;;;;;;;;;;;;7370047;19;1415;-64
2023/08/31 15:59:00;;;;;;;;;;;;;;;;;;7367995;19;1706;-64
2023/08/31 16:01:30;;;;;;;;;;;;;;;;;;7369364;19;1686;-64
2023/08/31 16:03:58;;;;;;;;;;;;;;;;;;7368063;19;1857;-64
2023/08/31 16:06:26;;;;;;;;;;;;;;;;;;7365713;19;1355;-65
2023/08/31 16:08:55;;;;;;;;;;;;;;;;;;7366178;19;2371;-63
2023/08/31 16:11:24;;;;;;;;;;;;;;;;;;7370632;19;2100;-64
2023/08/31 16:13:52;;;;;;;;;;;;;;;;;;7371165;19;1665;-65
2023/08/31 16:16:20;;;;;;;;;;;;;;;;;;7367728;19;1370;-65
2023/08/31 16:18:49;;;;;;;;;;;;;;;;;;7365928;19;802;-63
2023/08/31 16:21:17;;;;;;;;;;;;;;;;;;7369000;19;1918;-65
2023/08/31 16:23:45;;;;;;;;;;;;;;;;;;7368058;19;1857;-65
2023/08/31 16:26:13;;;;;;;;;;;;;;;;;;7368192;19;1470;-64
2023/08/31 16:28:42;;;;;;;;;;;;;;;;;;7363207;19;746;-64
2023/08/31 16:31:11;;;;;;;;;;;;;;;;;;7365988;19;1855;-63
2023/08/31 16:33:39;;;;;;;;;;;;;;;;;;7368835;19;2037;-62
2023/08/31 16:36:07;;;;;;;;;;;;;;;;;;7367992;19;1645;-64
2023/08/31 16:38:35;;;;;;;;;;;;;;;;;;7366830;19;1769;-65
2023/08/31 16:41:03;;;;;;;;;;;;;;;;;;7369483;19;1479;-64
2023/08/31 16:43:32;;;;;;;;;;;;;;;;;;7364001;19;1851;-64
2023/08/31 16:46:00;;;;;;;;;;;;;;;;;;7365638;19;1341;-64
2023/08/31 16:48:28;;;;;;;;;;;;;;;;;;7364919;19;1689;-64
2023/08/31 16:50:56;;;;;;;;;;;;;;;;;;7369231;19;1442;-64
2023/08/31 16:53:24;;;;;;;;;;;;;;;;;;7365455;19;806;-65
2023/08/31 16:55:52;;;;;;;;;;;;;;;;;;7365016;19;1386;-65
2023/08/31 16:58:20;;;;;;;;;;;;;;;;;;7367398;19;1807;-65
2023/08/31 17:00:49;;;;;;;;;;;;;;;;;;7369249;19;1856;-65
2023/08/31 17:03:17;;;;;;;;;;;;;;;;;;7368070;19;1853;-66
2023/08/31 17:05:45;;;;;;;;;;;;;;;;;;7365828;19;1312;-65
2023/08/31 17:08:13;;;;;;;;;;;;;;;;;;7368094;19;1731;-64
2023/08/31 17:10:42;;;;;;;;;;;;;;;;;;7369094;19;1568;-64
2023/08/31 17:13:10;;;;;;;;;;;;;;;;;;7368644;19;1495;-66
2023/08/31 17:15:38;;;;;;;;;;;;;;;;;;7368744;19;1699;-64